Time;durP1;ratioP1;P1;durP2;ratioP2;P2;SDS_P1;SDS_P2;PMS_P1;PMS_P2;Temp;Humidity;BMP_temperature;BMP_pressure;BME280_temperature;BME280_humidity;BME280_pressure;Samples;Min_cycle;Max_cycle;Signal;HPM_P1;HPM_P2
2023/04/27 00:01:00;;;;;;;10.87;8.10;;;4.80;99.90;;;;;;5076574;28;20904;-57
2023/04/27 00:03:29;;;;;;;11.03;7.43;;;4.70;99.90;;;;;;5078430;28;20696;-57
2023/04/27 00:05:56;;;;;;;12.27;8.27;;;4.60;99.90;;;;;;5079574;28;20721;-55
2023/04/27 00:08:23;;;;;;;12.27;8.50;;;4.60;99.90;;;;;;5080138;28;20768;-59
2023/04/27 00:10:51;;;;;;;9.37;7.80;;;4.50;99.90;;;;;;5080188;28;20521;-56
2023/04/27 00:13:18;;;;;;;10.20;7.90;;;4.60;99.90;;;;;;5079899;28;20483;-57
2023/04/27 00:15:45;;;;;;;10.33;7.67;;;4.50;99.90;;;;;;5080071;28;20843;-56
2023/04/27 00:18:12;;;;;;;11.53;7.60;;;4.50;99.90;;;;;;5080284;28;20496;-60
2023/04/27 00:20:41;;;;;;;12.17;8.43;;;4.40;99.90;;;;;;5079849;28;20461;-59
2023/04/27 00:23:09;;;;;;;10.57;8.07;;;4.40;99.90;;;;;;5080007;28;20542;-60
2023/04/27 00:25:36;;;;;;;8.90;7.40;;;4.40;99.90;;;;;;5079946;28;20500;-60
2023/04/27 00:28:03;;;;;;;8.67;7.50;;;4.30;99.90;;;;;;5079671;28;20543;-58
2023/04/27 00:30:30;;;;;;;9.37;6.80;;;4.20;99.90;;;;;;5075449;28;20525;-59
2023/04/27 00:32:58;;;;;;;10.47;6.87;;;4.10;99.90;;;;;;5059836;28;20825;-60
2023/04/27 00:35:25;;;;;;;13.83;8.37;;;4.10;99.90;;;;;;5059253;28;20558;-60
2023/04/27 00:37:55;;;;;;;10.60;8.23;;;4.10;99.90;;;;;;5060005;28;20926;-59
2023/04/27 00:40:22;;;;;;;10.63;8.57;;;4.10;99.90;;;;;;5059473;28;20458;-60
2023/04/27 00:42:49;;;;;;;12.77;9.87;;;4.00;99.90;;;;;;5059504;28;20589;-58
2023/04/27 00:45:17;;;;;;;9.77;7.67;;;4.00;99.90;;;;;;5058946;28;20436;-60
2023/04/27 00:47:45;;;;;;;11.73;8.10;;;3.90;99.90;;;;;;5059435;28;20458;-59
2023/04/27 00:50:12;;;;;;;9.70;7.80;;;3.80;99.90;;;;;;5059539;28;20494;-58
2023/04/27 00:52:40;;;;;;;10.97;8.33;;;3.80;99.90;;;;;;5059439;28;20463;-58
2023/04/27 00:55:10;;;;;;;11.53;7.60;;;3.70;99.90;;;;;;5057711;28;21176;-60
2023/04/27 00:57:37;;;;;;;10.60;7.80;;;3.70;99.90;;;;;;5058897;28;20462;-60
2023/04/27 01:00:06;;;;;;;8.30;7.40;;;3.70;99.90;;;;;;5059066;28;20466;-58
2023/04/27 01:02:33;;;;;;;10.17;7.60;;;3.60;99.90;;;;;;5059343;28;20462;-60
2023/04/27 01:05:02;;;;;;;11.07;7.17;;;3.60;99.90;;;;;;5058861;28;20462;-60
2023/04/27 01:07:30;;;;;;;13.70;8.73;;;3.50;99.90;;;;;;5059128;28;20774;-60
2023/04/27 01:09:57;;;;;;;11.00;7.97;;;3.40;99.90;;;;;;5058745;28;20493;-60
2023/04/27 01:12:26;;;;;;;11.17;7.97;;;3.30;99.90;;;;;;5068877;28;20474;-55
2023/04/27 01:14:53;;;;;;;12.00;8.17;;;3.30;99.90;;;;;;5078088;28;20542;-60
2023/04/27 01:17:20;;;;;;;10.70;7.87;;;3.30;99.90;;;;;;5078925;28;20815;-59
2023/04/27 01:19:48;;;;;;;12.53;8.57;;;3.20;99.90;;;;;;5078834;28;20560;-59
2023/04/27 01:22:16;;;;;;;12.13;8.70;;;3.20;99.90;;;;;;5079141;28;20461;-58
2023/04/27 01:24:44;;;;;;;11.40;7.17;;;3.20;99.90;;;;;;5078945;28;20913;-59
2023/04/27 01:27:12;;;;;;;13.57;7.97;;;3.20;99.90;;;;;;5078808;28;20501;-58
2023/04/27 01:29:39;;;;;;;12.23;7.60;;;3.20;99.90;;;;;;5078872;28;20874;-60
2023/04/27 01:32:06;;;;;;;16.40;11.53;;;3.10;99.90;;;;;;5078426;28;20498;-60
2023/04/27 01:34:33;;;;;;;18.50;14.13;;;3.10;99.90;;;;;;5079147;28;20488;-59
2023/04/27 01:37:00;;;;;;;17.50;13.30;;;3.00;99.90;;;;;;5078928;28;20468;-59
2023/04/27 01:39:28;;;;;;;11.97;8.97;;;2.90;99.90;;;;;;5078337;28;20442;-59
2023/04/27 01:41:56;;;;;;;11.47;9.77;;;2.90;99.90;;;;;;5078791;28;20460;-59
2023/04/27 01:44:23;;;;;;;15.23;9.77;;;2.80;99.90;;;;;;5078535;28;20484;-60
2023/04/27 01:46:51;;;;;;;12.23;8.77;;;2.80;99.90;;;;;;5078541;28;20570;-59
2023/04/27 01:49:18;;;;;;;10.80;8.50;;;2.80;99.90;;;;;;5077478;28;20561;-58
2023/04/27 01:51:45;;;;;;;12.07;9.50;;;2.70;99.90;;;;;;5077892;28;20500;-58
2023/04/27 01:54:12;;;;;;;11.13;9.13;;;2.60;99.90;;;;;;5078141;28;20759;-59
2023/04/27 01:56:39;;;;;;;13.07;10.10;;;2.70;99.90;;;;;;5077759;28;20472;-56
2023/04/27 01:59:08;;;;;;;15.73;9.10;;;2.70;99.90;;;;;;5078477;28;20461;-58
2023/04/27 02:01:35;;;;;;;12.00;8.90;;;2.60;99.90;;;;;;5077877;28;20458;-58
2023/04/27 02:04:02;;;;;;;13.93;9.40;;;2.60;99.90;;;;;;5077754;28;20556;-60
2023/04/27 02:06:30;;;;;;;11.87;9.20;;;2.50;99.90;;;;;;5077929;28;20440;-59
2023/04/27 02:08:57;;;;;;;16.93;9.63;;;2.50;99.90;;;;;;5077978;28;20888;-59
2023/04/27 02:11:25;;;;;;;13.80;9.50;;;2.50;99.90;;;;;;5078091;28;20904;-60
2023/04/27 02:13:52;;;;;;;12.20;8.70;;;2.40;99.90;;;;;;5078224;28;20467;-58
2023/04/27 02:16:21;;;;;;;13.43;8.87;;;2.40;1.00;;;;;;5077808;28;20492;-59
2023/04/27 02:18:48;;;;;;;11.87;9.70;;;2.30;1.00;;;;;;5078025;28;20487;-60
2023/04/27 02:21:15;;;;;;;10.57;8.90;;;2.30;1.00;;;;;;5077230;28;20457;-57
2023/04/27 02:23:43;;;;;;;12.43;9.30;;;2.20;1.00;;;;;;5077554;28;20488;-59
2023/04/27 02:26:17;;;;;;;11.40;8.43;;;2.20;1.00;;;;;;5077036;28;20461;-58
2023/04/27 02:28:45;;;;;;;10.90;8.80;;;2.10;1.00;;;;;;5076507;28;20532;-60
2023/04/27 02:31:12;;;;;;;12.20;8.67;;;2.10;99.90;;;;;;5075855;28;20846;-57
2023/04/27 02:33:41;;;;;;;12.80;8.40;;;2.10;99.90;;;;;;5075775;28;20468;-60
2023/04/27 02:36:09;;;;;;;11.23;8.63;;;2.10;1.00;;;;;;5076071;28;20739;-56
2023/04/27 02:38:36;;;;;;;13.93;9.67;;;2.10;1.00;;;;;;5075906;28;20478;-59
2023/04/27 02:41:03;;;;;;;13.67;8.77;;;2.10;99.90;;;;;;5076040;28;20552;-58
2023/04/27 02:43:30;;;;;;;16.30;9.50;;;2.00;1.00;;;;;;5076052;28;20471;-58
2023/04/27 02:46:02;;;;;;;15.00;11.40;;;2.00;1.00;;;;;;5076901;28;20453;-56
2023/04/27 02:48:30;;;;;;;10.47;9.10;;;1.90;1.00;;;;;;5077433;28;20511;-58
2023/04/27 02:50:58;;;;;;;11.53;9.23;;;1.90;1.00;;;;;;5077246;28;20492;-58
2023/04/27 02:53:26;;;;;;;15.53;9.87;;;2.00;1.00;;;;;;5077058;28;20467;-59
2023/04/27 02:55:53;;;;;;;14.77;9.70;;;1.90;1.00;;;;;;5076689;28;20883;-58
2023/04/27 02:58:21;;;;;;;11.63;9.90;;;1.90;1.00;;;;;;5077434;28;20512;-60
2023/04/27 03:00:53;;;;;;;16.63;9.47;;;1.80;1.00;;;;;;5077533;28;20472;-57
2023/04/27 03:03:20;;;;;;;13.77;9.97;;;1.80;1.00;;;;;;5077027;28;20763;-59
2023/04/27 03:05:47;;;;;;;12.27;9.57;;;1.80;1.00;;;;;;5077602;28;20507;-60
2023/04/27 03:08:16;;;;;;;13.07;9.70;;;1.90;1.00;;;;;;5077083;28;20559;-59
2023/04/27 03:10:43;;;;;;;15.07;10.37;;;1.80;1.00;;;;;;5077247;28;21036;-57
2023/04/27 03:13:10;;;;;;;13.70;10.30;;;1.80;1.00;;;;;;5076757;28;20496;-59
2023/04/27 03:15:38;;;;;;;11.50;9.93;;;1.70;1.00;;;;;;5076816;28;20439;-59
2023/04/27 03:18:06;;;;;;;12.50;9.13;;;1.70;1.00;;;;;;5079357;28;20551;-59
2023/04/27 03:20:33;;;;;;;13.40;11.00;;;1.70;1.00;;;;;;5081263;28;20436;-59
2023/04/27 03:23:00;;;;;;;14.53;9.77;;;1.70;1.00;;;;;;5081246;28;20908;-59
2023/04/27 03:25:29;;;;;;;17.07;9.93;;;1.70;1.00;;;;;;5081051;28;20460;-58
2023/04/27 03:27:56;;;;;;;13.47;9.43;;;1.60;1.00;;;;;;5080650;28;20555;-58
2023/04/27 03:30:23;;;;;;;14.77;10.40;;;1.60;1.00;;;;;;5081277;28;20464;-58
2023/04/27 03:32:50;;;;;;;14.60;10.43;;;1.50;1.00;;;;;;5080341;28;20857;-59
2023/04/27 03:35:18;;;;;;;11.30;10.10;;;1.50;1.00;;;;;;5080722;28;20552;-59
2023/04/27 03:37:45;;;;;;;11.70;10.13;;;1.50;1.00;;;;;;5080932;28;20833;-58
2023/04/27 03:40:14;;;;;;;13.80;9.57;;;1.60;1.00;;;;;;5080995;28;20514;-59
2023/04/27 03:42:42;;;;;;;16.90;10.43;;;1.50;1.00;;;;;;5081267;28;20468;-59
2023/04/27 03:45:11;;;;;;;11.80;9.70;;;1.50;1.00;;;;;;5080840;28;20461;-58
2023/04/27 03:47:38;;;;;;;13.47;9.73;;;1.50;1.00;;;;;;5080807;28;20476;-59
2023/04/27 03:50:06;;;;;;;14.23;9.50;;;1.50;1.00;;;;;;5080577;28;20556;-58
2023/04/27 03:52:33;;;;;;;14.27;10.27;;;1.40;1.00;;;;;;5080561;28;20993;-58
2023/04/27 03:55:01;;;;;;;17.40;10.87;;;1.50;1.00;;;;;;5080955;28;20870;-55
2023/04/27 03:57:28;;;;;;;13.97;10.70;;;1.50;1.00;;;;;;5079925;28;20496;-57
2023/04/27 03:59:57;;;;;;;13.03;10.20;;;1.50;1.00;;;;;;5080795;28;20465;-57
2023/04/27 04:02:24;;;;;;;15.60;10.07;;;1.40;1.00;;;;;;5080281;28;20551;-59
2023/04/27 04:04:52;;;;;;;14.67;10.07;;;1.30;1.00;;;;;;5080440;28;20474;-60
2023/04/27 04:07:19;;;;;;;16.70;10.53;;;1.30;1.00;;;;;;5080443;28;20925;-60
2023/04/27 04:09:46;;;;;;;11.13;9.57;;;1.30;1.00;;;;;;5080250;28;20465;-60
2023/04/27 04:12:14;;;;;;;14.40;10.90;;;1.30;1.00;;;;;;5079966;28;20477;-60
2023/04/27 04:14:41;;;;;;;15.07;10.57;;;1.20;1.00;;;;;;5080495;28;20469;-60
2023/04/27 04:17:11;;;;;;;14.77;10.23;;;1.20;1.00;;;;;;5080374;28;20460;-60
2023/04/27 04:19:38;;;;;;;16.37;9.83;;;1.10;1.00;;;;;;5080064;28;20472;-60
2023/04/27 04:22:05;;;;;;;12.30;9.17;;;1.20;1.00;;;;;;5079892;28;20559;-60
2023/04/27 04:24:32;;;;;;;14.27;9.73;;;1.20;1.00;;;;;;5080013;28;20514;-60
2023/04/27 04:27:00;;;;;;;18.07;11.27;;;1.30;1.00;;;;;;5079827;28;20773;-60
2023/04/27 04:29:27;;;;;;;13.23;10.23;;;1.30;1.00;;;;;;5079227;28;20461;-60
2023/04/27 04:31:56;;;;;;;15.73;10.00;;;1.30;1.00;;;;;;5079619;28;20488;-60
2023/04/27 04:34:25;;;;;;;12.07;9.37;;;1.30;1.00;;;;;;5079594;28;20470;-57
2023/04/27 04:36:52;;;;;;;17.03;11.37;;;1.20;1.00;;;;;;5079861;28;20957;-58
2023/04/27 04:39:20;;;;;;;11.57;9.37;;;1.30;1.00;;;;;;5079522;28;20498;-59
2023/04/27 04:41:48;;;;;;;13.93;9.53;;;1.20;1.00;;;;;;5080019;28;20470;-58
2023/04/27 04:44:15;;;;;;;16.73;10.90;;;1.20;1.00;;;;;;5078654;28;20476;-60
2023/04/27 04:46:43;;;;;;;15.83;10.83;;;1.20;1.00;;;;;;5066947;28;20459;-59
2023/04/27 04:49:10;;;;;;;12.63;10.60;;;1.20;1.00;;;;;;5059885;28;20437;-60
2023/04/27 04:51:43;;;;;;;15.20;10.97;;;1.30;1.00;;;;;;5059282;28;20817;-59
2023/04/27 04:54:10;;;;;;;15.50;11.87;;;1.30;1.00;;;;;;5058306;28;20775;-57
2023/04/27 04:56:37;;;;;;;14.10;11.27;;;1.40;1.00;;;;;;5059416;28;20457;-60
2023/04/27 04:59:05;;;;;;;13.50;9.67;;;1.50;1.00;;;;;;5059424;28;20472;-60
2023/04/27 05:01:32;;;;;;;16.43;11.23;;;1.50;1.00;;;;;;5059198;28;20437;-60
2023/04/27 05:03:59;;;;;;;17.87;10.67;;;1.50;1.00;;;;;;5066122;28;20836;-60
2023/04/27 05:06:27;;;;;;;16.33;10.83;;;1.50;1.00;;;;;;5079287;28;20952;-60
2023/04/27 05:08:55;;;;;;;14.30;10.50;;;1.60;1.00;;;;;;5079279;28;20897;-59
2023/04/27 05:11:23;;;;;;;19.63;11.57;;;1.70;1.00;;;;;;5078902;28;20489;-60
2023/04/27 05:13:50;;;;;;;17.00;11.33;;;1.90;1.00;;;;;;5078892;28;20469;-60
2023/04/27 05:16:17;;;;;;;17.97;12.30;;;1.90;1.00;;;;;;5079157;28;20898;-58
2023/04/27 05:18:44;;;;;;;19.70;12.17;;;2.10;1.00;;;;;;5079028;28;20457;-60
2023/04/27 05:21:15;;;;;;;15.10;11.63;;;2.20;1.00;;;;;;5079109;28;20886;-59
2023/04/27 05:23:42;;;;;;;16.00;12.30;;;2.40;1.00;;;;;;5077007;28;20461;-60
2023/04/27 05:26:15;;;;;;;16.63;10.80;;;2.50;1.00;;;;;;5076892;28;20436;-58
2023/04/27 05:28:42;;;;;;;17.23;11.57;;;2.60;1.00;;;;;;5077113;28;20534;-58
2023/04/27 05:31:10;;;;;;;18.03;12.57;;;2.70;1.00;;;;;;5078992;28;20831;-58
2023/04/27 05:33:37;;;;;;;17.63;12.73;;;2.80;1.00;;;;;;5078627;28;20559;-60
2023/04/27 05:36:05;;;;;;;19.23;13.70;;;2.90;1.00;;;;;;5077887;28;20615;-60
2023/04/27 05:38:33;;;;;;;20.83;11.40;;;3.00;1.00;;;;;;5056951;28;20932;-57
2023/04/27 05:41:00;;;;;;;17.00;13.03;;;3.10;1.00;;;;;;5061013;28;20909;-62
2023/04/27 05:43:29;;;;;;;18.17;11.33;;;3.30;1.00;;;;;;5075333;28;20489;-62
2023/04/27 05:45:56;;;;;;;16.70;11.87;;;3.40;1.00;;;;;;5075614;28;21028;-62
2023/04/27 05:48:23;;;;;;;18.63;10.17;;;3.50;1.00;;;;;;5076139;28;20461;-62
2023/04/27 05:51:00;;;;;;;16.27;10.97;;;3.70;1.00;;;;;;5075649;28;20552;-63
2023/04/27 05:53:27;;;;;;;19.63;11.67;;;3.90;1.00;;;;;;5073185;28;20559;-63
2023/04/27 05:55:54;;;;;;;17.77;11.20;;;4.20;1.00;;;;;;5074908;28;20564;-63
2023/04/27 05:58:21;;;;;;;14.87;11.30;;;4.40;1.00;;;;;;5075652;28;20457;-64
2023/04/27 06:00:51;;;;;;;15.97;11.03;;;4.50;1.00;;;;;;5076384;28;20551;-64
2023/04/27 06:03:18;;;;;;;18.00;10.90;;;4.70;1.00;;;;;;5074827;28;20511;-64
2023/04/27 06:05:45;;;;;;;18.60;10.73;;;4.90;1.00;;;;;;5074716;28;20565;-64
2023/04/27 06:08:13;;;;;;;12.27;9.90;;;5.10;1.00;;;;;;5076003;28;20514;-64
2023/04/27 06:10:40;;;;;;;12.50;9.60;;;5.30;99.90;;;;;;5075560;28;20556;-64
2023/04/27 06:13:07;;;;;;;12.83;9.47;;;5.60;99.90;;;;;;5059993;28;20504;-65
2023/04/27 06:15:35;;;;;;;13.20;10.27;;;5.90;99.90;;;;;;5057302;28;20523;-65
2023/04/27 06:18:04;;;;;;;17.90;11.07;;;6.20;99.90;;;;;;5057620;28;20512;-65
2023/04/27 06:20:32;;;;;;;16.40;8.53;;;6.50;99.90;;;;;;5057978;28;20470;-65
2023/04/27 06:23:00;;;;;;;13.70;9.63;;;7.00;99.90;;;;;;5057583;28;20946;-64
2023/04/27 06:25:28;;;;;;;11.77;8.93;;;7.30;99.90;;;;;;5057722;28;20816;-65
2023/04/27 06:27:55;;;;;;;14.10;9.83;;;7.50;99.90;;;;;;5056506;28;20486;-64
2023/04/27 06:30:22;;;;;;;17.67;10.40;;;7.70;99.90;;;;;;5056635;28;20746;-63
2023/04/27 06:32:50;;;;;;;18.90;9.50;;;8.00;99.90;;;;;;5057130;28;20512;-63
2023/04/27 06:35:20;;;;;;;11.20;9.03;;;8.30;99.90;;;;;;5057524;28;20454;-63
2023/04/27 06:37:47;;;;;;;12.90;9.07;;;8.50;99.90;;;;;;5057242;28;20481;-60
2023/04/27 06:40:14;;;;;;;11.37;8.80;;;8.60;99.90;;;;;;5055772;28;20433;-61
2023/04/27 06:42:42;;;;;;;11.07;8.17;;;8.70;99.90;;;;;;5054978;28;20454;-62
2023/04/27 06:45:10;;;;;;;14.37;9.50;;;8.80;99.90;;;;;;5054193;28;20465;-62
2023/04/27 06:47:37;;;;;;;17.33;9.13;;;9.10;99.90;;;;;;5054359;28;20472;-62
2023/04/27 06:50:05;;;;;;;11.27;9.37;;;9.30;99.90;;;;;;5064395;28;20503;-61
2023/04/27 06:52:34;;;;;;;18.20;9.77;;;9.50;99.90;;;;;;5074680;28;20481;-62
2023/04/27 06:55:01;;;;;;;13.90;9.40;;;9.50;99.90;;;;;;5076128;28;20500;-61
2023/04/27 06:57:28;;;;;;;11.73;8.67;;;9.80;99.90;;;;;;5076087;28;20461;-61
2023/04/27 06:59:55;;;;;;;15.20;9.00;;;9.90;99.90;;;;;;5074603;28;20462;-62
2023/04/27 07:02:23;;;;;;;11.17;8.53;;;10.00;99.90;;;;;;5074145;28;20453;-60
2023/04/27 07:04:50;;;;;;;15.53;9.80;;;10.10;99.90;;;;;;5075825;28;20553;-62
2023/04/27 07:07:17;;;;;;;13.23;8.37;;;10.20;99.90;;;;;;5075635;28;20919;-61
2023/04/27 07:09:46;;;;;;;12.20;8.63;;;10.30;99.90;;;;;;5075377;28;20468;-61
2023/04/27 07:12:13;;;;;;;11.83;9.30;;;10.60;99.90;;;;;;5074579;28;20618;-62
2023/04/27 07:14:40;;;;;;;10.60;7.70;;;10.70;99.90;;;;;;5074838;28;20544;-61
2023/04/27 07:17:07;;;;;;;11.90;7.77;;;10.90;99.90;;;;;;5075015;28;20771;-62
2023/04/27 07:19:36;;;;;;;10.60;8.73;;;11.10;99.90;;;;;;5074016;28;20950;-62
2023/04/27 07:22:04;;;;;;;12.97;9.63;;;11.20;99.90;;;;;;5073352;28;20464;-62
2023/04/27 07:24:31;;;;;;;9.63;8.00;;;11.20;99.90;;;;;;5075930;28;20868;-62
2023/04/27 07:27:01;;;;;;;9.93;6.90;;;11.40;99.90;;;;;;5076908;28;20461;-62
2023/04/27 07:29:29;;;;;;;13.67;8.80;;;11.80;99.90;;;;;;5077015;28;20461;-62
2023/04/27 07:31:56;;;;;;;11.27;7.97;;;11.90;99.90;;;;;;5076458;28;20469;-62
2023/04/27 07:34:24;;;;;;;10.80;8.20;;;12.20;99.90;;;;;;5076938;28;20878;-62
2023/04/27 07:36:53;;;;;;;8.60;7.80;;;12.60;99.90;;;;;;5076939;28;20492;-62
2023/04/27 07:39:20;;;;;;;10.80;7.70;;;12.70;99.90;;;;;;5076443;28;20501;-61
2023/04/27 07:41:48;;;;;;;9.37;8.00;;;12.60;99.90;;;;;;5076860;28;20530;-62
2023/04/27 07:44:18;;;;;;;10.50;7.63;;;12.70;99.90;;;;;;5076679;28;20465;-63
2023/04/27 07:46:47;;;;;;;13.47;8.20;;;12.60;99.90;;;;;;5076856;28;20457;-62
2023/04/27 07:49:15;;;;;;;10.40;7.83;;;12.90;99.90;;;;;;5076556;28;20468;-61
2023/04/27 07:51:42;;;;;;;7.20;6.50;;;13.00;99.90;;;;;;5076397;28;20513;-62
2023/04/27 07:54:10;;;;;;;11.87;8.27;;;13.10;99.90;;;;;;5076010;28;20497;-62
2023/04/27 07:56:40;;;;;;;12.53;8.10;;;13.20;99.90;;;;;;5075257;28;20464;-62
2023/04/27 07:59:07;;;;;;;9.10;8.20;;;13.40;99.90;;;;;;5076552;28;20572;-62
2023/04/27 08:01:36;;;;;;;9.73;6.70;;;13.50;99.90;;;;;;5076481;28;20460;-62
2023/04/27 08:04:04;;;;;;;9.37;7.40;;;13.80;99.90;;;;;;5078271;28;20460;-62
2023/04/27 08:06:31;;;;;;;9.60;6.63;;;14.00;99.90;;;;;;5080461;28;20467;-62
2023/04/27 08:08:59;;;;;;;10.87;7.57;;;13.80;99.90;;;;;;5080177;28;20810;-62
2023/04/27 08:11:27;;;;;;;8.60;7.80;;;14.10;99.90;;;;;;5079181;28;20846;-62
2023/04/27 08:13:54;;;;;;;9.97;6.90;;;14.00;99.90;;;;;;5077152;28;20483;-62
2023/04/27 08:16:22;;;;;;;8.90;6.57;;;14.30;99.90;;;;;;5078904;28;20467;-62
2023/04/27 08:18:51;;;;;;;8.90;7.60;;;14.50;99.90;;;;;;5077897;28;20849;-63
2023/04/27 08:21:18;;;;;;;9.23;6.87;;;12.70;99.90;;;;;;5080121;28;20461;-62
2023/04/27 08:23:45;;;;;;;11.97;7.60;;;12.60;99.90;;;;;;5079684;28;20552;-62
2023/04/27 08:26:15;;;;;;;7.80;7.00;;;12.40;99.90;;;;;;5080020;28;20461;-62
2023/04/27 08:28:42;;;;;;;8.83;7.37;;;13.10;99.90;;;;;;5079542;28;20499;-60
2023/04/27 08:31:09;;;;;;;9.57;6.90;;;13.00;99.90;;;;;;5079782;28;20503;-61
2023/04/27 08:33:37;;;;;;;8.20;7.40;;;13.80;99.90;;;;;;5079344;28;20493;-62
2023/04/27 08:36:06;;;;;;;11.30;7.00;;;14.20;99.90;;;;;;5079625;28;20950;-62
2023/04/27 08:38:35;;;;;;;7.40;6.43;;;14.00;99.90;;;;;;5078778;28;20457;-63
2023/04/27 08:41:02;;;;;;;6.30;5.50;;;14.20;99.90;;;;;;5077656;28;20487;-62
2023/04/27 08:43:34;;;;;;;7.70;6.40;;;14.30;99.90;;;;;;5079423;28;20457;-62
2023/04/27 08:46:02;;;;;;;8.47;7.00;;;14.20;99.90;;;;;;5078900;28;20457;-62
2023/04/27 08:48:30;;;;;;;8.80;6.30;;;14.00;99.90;;;;;;5079635;28;20549;-62
2023/04/27 08:50:59;;;;;;;7.20;6.50;;;14.40;99.90;;;;;;5079143;28;20508;-62
2023/04/27 08:53:29;;;;;;;7.97;7.27;;;14.60;99.90;;;;;;5079044;28;20591;-62
2023/04/27 08:55:56;;;;;;;9.67;6.90;;;14.80;99.90;;;;;;5079375;28;20465;-60
2023/04/27 08:58:36;;;;;;;8.43;6.40;;;14.80;99.90;;;;;;5079281;28;20468;-62
2023/04/27 09:01:06;;;;;;;8.83;6.50;;;15.40;99.90;;;;;;5079356;28;20492;-62
2023/04/27 09:03:34;;;;;;;7.33;6.43;;;15.60;99.90;;;;;;5079174;28;20461;-63
2023/04/27 09:06:02;;;;;;;11.83;7.83;;;15.40;99.90;;;;;;5079107;28;20843;-63
2023/04/27 09:08:41;;;;;;;7.50;6.80;;;14.30;99.90;;;;;;5077872;28;20905;-63
2023/04/27 09:11:09;;;;;;;7.63;6.30;;;13.50;99.90;;;;;;5078288;28;20477;-63
2023/04/27 09:13:37;;;;;;;8.33;6.97;;;14.00;99.90;;;;;;5077771;28;20572;-62
2023/04/27 09:16:05;;;;;;;11.70;6.67;;;14.50;99.90;;;;;;5077271;28;20515;-63
2023/04/27 09:18:36;;;;;;;7.43;6.60;;;14.80;99.90;;;;;;5070846;28;20480;-63
2023/04/27 09:21:05;;;;;;;7.30;5.93;;;14.50;99.90;;;;;;5067405;28;20470;-63
2023/04/27 09:23:35;;;;;;;7.40;6.70;;;14.40;99.90;;;;;;5077458;28;20477;-62
2023/04/27 09:26:06;;;;;;;8.20;6.40;;;14.10;99.90;;;;;;5077096;28;20473;-63
2023/04/27 09:28:34;;;;;;;7.03;6.13;;;14.60;99.90;;;;;;5078309;28;20969;-62
2023/04/27 09:31:03;;;;;;;7.90;6.57;;;13.90;99.90;;;;;;5078502;28;20941;-63
2023/04/27 09:33:32;;;;;;;8.27;6.50;;;14.00;99.90;;;;;;5071693;28;20497;-61
2023/04/27 09:36:02;;;;;;;7.43;6.10;;;14.20;99.90;;;;;;5076235;28;20469;-62
2023/04/27 09:38:30;;;;;;;7.43;5.77;;;13.90;99.90;;;;;;5073375;28;20474;-63
2023/04/27 09:40:59;;;;;;;7.17;6.10;;;14.50;99.90;;;;;;5073986;28;20469;-61
2023/04/27 09:43:28;;;;;;;11.20;6.10;;;14.70;99.90;;;;;;5073550;28;20872;-63
2023/04/27 09:45:56;;;;;;;6.73;5.97;;;15.10;99.90;;;;;;5075368;28;20473;-60
2023/04/27 09:48:23;;;;;;;8.70;7.10;;;15.60;99.90;;;;;;5077449;28;20955;-63
2023/04/27 09:50:52;;;;;;;10.67;7.70;;;15.70;99.90;;;;;;5075670;28;20560;-63
2023/04/27 09:53:30;;;;;;;7.13;6.30;;;15.50;99.90;;;;;;5076471;28;20697;-63
2023/04/27 09:56:13;;;;;;;8.27;6.17;;;15.20;99.90;;;;;;5075256;28;20461;-62
2023/04/27 09:59:10;;;;;;;8.27;5.97;;;15.30;99.90;;;;;;5074215;28;20544;-62
2023/04/27 10:01:43;;;;;;;8.20;6.10;;;14.00;99.90;;;;;;5070442;28;20481;-61
2023/04/27 10:04:23;;;;;;;8.03;6.03;;;14.20;99.90;;;;;;5071460;28;20470;-61
2023/04/27 10:06:59;;;;;;;6.73;6.00;;;15.00;99.90;;;;;;5074412;28;20463;-60
2023/04/27 10:09:29;;;;;;;6.97;5.70;;;15.40;99.90;;;;;;5075386;28;20487;-63
2023/04/27 10:12:13;;;;;;;7.33;6.50;;;15.90;99.90;;;;;;5077289;28;20464;-60
2023/04/27 10:14:52;;;;;;;8.57;6.20;;;15.60;99.90;;;;;;5077832;28;20500;-62
2023/04/27 10:17:24;;;;;;;6.97;6.27;;;15.80;99.90;;;;;;5075669;28;20488;-62
2023/04/27 10:19:56;;;;;;;7.27;5.50;;;15.90;99.90;;;;;;5074637;28;20796;-62
2023/04/27 10:22:24;;;;;;;8.87;6.70;;;16.40;99.90;;;;;;5075143;28;20458;-62
2023/04/27 10:24:52;;;;;;;8.20;6.60;;;17.00;99.90;;;;;;5075166;28;20464;-63
2023/04/27 10:27:22;;;;;;;9.03;7.07;;;17.10;99.90;;;;;;5075111;28;20851;-62
2023/04/27 10:29:50;;;;;;;7.37;5.80;;;17.20;99.90;;;;;;5094742;28;20922;-62
2023/04/27 10:32:22;;;;;;;7.30;6.07;;;17.30;99.90;;;;;;5094811;28;20562;-63
2023/04/27 10:34:50;;;;;;;9.63;6.00;;;17.60;99.90;;;;;;5095979;28;20586;-63
2023/04/27 10:37:23;;;;;;;9.63;7.00;;;17.00;99.90;;;;;;5097551;28;20456;-63
2023/04/27 10:39:50;;;;;;;7.57;6.87;;;17.30;99.90;;;;;;5096970;28;20482;-63
2023/04/27 10:42:28;;;;;;;7.30;6.13;;;17.10;99.90;;;;;;5095877;28;20456;-58
2023/04/27 10:44:57;;;;;;;6.57;5.93;;;17.30;99.90;;;;;;5076989;28;20465;-59
2023/04/27 10:47:35;;;;;;;7.97;5.80;;;17.40;99.90;;;;;;5052776;28;20774;-60
2023/04/27 10:50:04;;;;;;;6.10;5.50;;;17.20;99.90;;;;;;5055723;28;20912;-60
2023/04/27 10:52:31;;;;;;;8.03;6.07;;;17.20;99.90;;;;;;5055316;28;20552;-59
2023/04/27 10:55:05;;;;;;;7.90;6.43;;;17.00;99.90;;;;;;5055811;28;20490;-60
2023/04/27 10:57:34;;;;;;;8.40;6.50;;;17.10;99.90;;;;;;5056989;28;20527;-59
2023/04/27 11:00:01;;;;;;;6.97;6.07;;;16.30;99.90;;;;;;5057278;28;20466;-59
2023/04/27 11:02:30;;;;;;;7.13;5.37;;;16.50;99.90;;;;;;5068485;28;20475;-59
2023/04/27 11:04:57;;;;;;;6.37;5.83;;;17.10;99.90;;;;;;5076884;28;20461;-60
2023/04/27 11:07:26;;;;;;;5.80;5.20;;;17.40;99.90;;;;;;5076861;28;20465;-59
2023/04/27 11:09:53;;;;;;;8.40;7.13;;;17.30;99.90;;;;;;5076710;28;20512;-60
2023/04/27 11:12:21;;;;;;;8.50;5.80;;;17.10;99.90;;;;;;5076903;28;20548;-60
2023/04/27 11:14:50;;;;;;;6.83;5.47;;;17.20;99.90;;;;;;5075610;28;20524;-60
2023/04/27 11:17:27;;;;;;;6.30;5.57;;;17.50;99.90;;;;;;5076106;28;20471;-60
2023/04/27 11:19:55;;;;;;;6.80;6.10;;;17.10;99.90;;;;;;5070526;28;20554;-60
2023/04/27 11:22:22;;;;;;;9.73;6.37;;;16.00;99.90;;;;;;5059918;28;20470;-60
2023/04/27 11:24:50;;;;;;;9.77;6.17;;;16.20;99.90;;;;;;5067380;28;20458;-60
2023/04/27 11:27:18;;;;;;;7.03;6.40;;;16.50;99.90;;;;;;5074956;28;20579;-60
2023/04/27 11:29:45;;;;;;;6.30;5.77;;;16.30;99.90;;;;;;5076241;28;20766;-62
2023/04/27 11:32:20;;;;;;;5.73;5.23;;;17.00;99.90;;;;;;5076064;28;20527;-63
2023/04/27 11:34:51;;;;;;;7.63;6.30;;;17.90;99.90;;;;;;5074982;28;20499;-63
2023/04/27 11:37:23;;;;;;;7.90;6.33;;;18.90;99.90;;;;;;5074830;28;20804;-63
2023/04/27 11:39:51;;;;;;;7.30;6.60;;;19.20;99.90;;;;;;5077578;28;20832;-62
2023/04/27 11:42:20;;;;;;;7.43;6.73;;;19.40;99.90;;;;;;5076524;28;20534;-61
2023/04/27 11:44:56;;;;;;;6.63;6.13;;;19.60;99.90;;;;;;5078026;28;20502;-62
2023/04/27 11:47:26;;;;;;;6.77;6.07;;;19.70;99.90;;;;;;5078059;28;20472;-63
2023/04/27 11:49:58;;;;;;;8.40;6.07;;;20.10;99.90;;;;;;5070557;28;20819;-62
2023/04/27 11:52:29;;;;;;;7.70;6.80;;;20.40;99.90;;;;;;5077245;28;20937;-62
2023/04/27 11:54:56;;;;;;;5.50;5.10;;;20.30;99.90;;;;;;5075606;28;20496;-63
2023/04/27 11:57:26;;;;;;;7.40;6.80;;;20.30;99.90;;;;;;5072247;28;20558;-59
2023/04/27 11:59:54;;;;;;;6.87;6.27;;;20.30;99.90;;;;;;5075353;28;20473;-61
2023/04/27 12:02:21;;;;;;;6.73;6.13;;;20.00;99.90;;;;;;5075161;28;20476;-62
2023/04/27 12:04:50;;;;;;;12.53;7.20;;;20.10;99.90;;;;;;5074054;28;20499;-61
2023/04/27 12:07:18;;;;;;;7.83;7.23;;;19.60;99.90;;;;;;5076735;28;20910;-61
2023/04/27 12:09:46;;;;;;;8.60;7.50;;;19.90;99.90;;;;;;5077601;28;20469;-61
2023/04/27 12:12:17;;;;;;;8.00;7.20;;;19.90;99.90;;;;;;5071479;28;20901;-61
2023/04/27 12:14:44;;;;;;;8.07;7.23;;;19.40;99.90;;;;;;5071773;28;20519;-63
2023/04/27 12:17:12;;;;;;;7.30;6.70;;;19.60;99.90;;;;;;5076180;28;20487;-62
2023/04/27 12:19:39;;;;;;;8.37;7.60;;;17.90;99.90;;;;;;5076788;28;20972;-63
2023/04/27 12:22:08;;;;;;;12.03;8.03;;;16.20;99.90;;;;;;5076467;28;20792;-62
2023/04/27 12:24:36;;;;;;;8.60;7.80;;;17.20;99.90;;;;;;5074269;28;20485;-62
2023/04/27 12:27:03;;;;;;;8.93;8.03;;;18.70;99.90;;;;;;5077701;28;20453;-61
2023/04/27 12:29:31;;;;;;;8.93;7.90;;;19.10;99.90;;;;;;5076446;28;20461;-61
2023/04/27 12:31:59;;;;;;;9.30;8.43;;;18.90;99.90;;;;;;5074296;28;20469;-59
2023/04/27 12:34:27;;;;;;;11.83;8.00;;;18.60;99.90;;;;;;5076088;28;20464;-60
2023/04/27 12:36:55;;;;;;;8.27;7.47;;;19.20;99.90;;;;;;5073646;28;20487;-62
2023/04/27 12:39:24;;;;;;;8.60;7.20;;;18.20;99.90;;;;;;5078255;28;20457;-61
2023/04/27 12:41:52;;;;;;;9.13;7.73;;;18.50;99.90;;;;;;5078063;28;20453;-61
2023/04/27 12:44:20;;;;;;;9.03;8.23;;;18.80;99.90;;;;;;5076748;28;20891;-62
2023/04/27 12:46:48;;;;;;;10.63;8.20;;;18.80;99.90;;;;;;5077811;28;20472;-59
2023/04/27 12:49:15;;;;;;;8.60;7.80;;;18.30;99.90;;;;;;5077415;28;20895;-60
2023/04/27 12:51:43;;;;;;;7.87;6.80;;;18.60;99.90;;;;;;5066307;28;20863;-61
2023/04/27 12:54:11;;;;;;;7.77;7.07;;;19.20;99.90;;;;;;5056693;28;20513;-62